sensor_id;sensor_type;location;lat;lon;timestamp;P1;durP1;ratioP1;P2;durP2;ratioP2
13252;SDS011;6693;54.370;10.132;2023-03-16T00:00:32;13.55;;;1.02;;
13252;SDS011;6693;54.370;10.132;2023-03-16T00:01:33;8.20;;;1.27;;
13252;SDS011;6693;54.370;10.132;2023-03-16T00:02:36;11.32;;;1.35;;
13252;SDS011;6693;54.370;10.132;2023-03-16T00:03:37;6.63;;;0.98;;
13252;SDS011;6693;54.370;10.132;2023-03-16T00:04:43;10.43;;;1.67;;
13252;SDS011;6693;54.370;10.132;2023-03-16T00:05:46;10.10;;;1.38;;
13252;SDS011;6693;54.370;10.132;2023-03-16T00:06:50;8.85;;;1.52;;
13252;SDS011;6693;54.370;10.132;2023-03-16T00:07:50;10.18;;;1.15;;
13252;SDS011;6693;54.370;10.132;2023-03-16T00:08:54;8.55;;;1.17;;
13252;SDS011;6693;54.370;10.132;2023-03-16T00:09:58;11.25;;;1.45;;
13252;SDS011;6693;54.370;10.132;2023-03-16T00:11:01;8.57;;;0.88;;
13252;SDS011;6693;54.370;10.132;2023-03-16T00:12:02;11.15;;;1.98;;
13252;SDS011;6693;54.370;10.132;2023-03-16T00:13:05;9.00;;;1.17;;
13252;SDS011;6693;54.370;10.132;2023-03-16T00:14:06;12.50;;;1.45;;
13252;SDS011;6693;54.370;10.132;2023-03-16T00:15:09;10.07;;;1.20;;
13252;SDS011;6693;54.370;10.132;2023-03-16T00:16:10;9.13;;;1.13;;
13252;SDS011;6693;54.370;10.132;2023-03-16T00:17:17;9.77;;;1.13;;
13252;SDS011;6693;54.370;10.132;2023-03-16T00:18:18;9.35;;;1.60;;
13252;SDS011;6693;54.370;10.132;2023-03-16T00:19:22;7.47;;;2.10;;
13252;SDS011;6693;54.370;10.132;2023-03-16T00:20:25;8.82;;;2.72;;
13252;SDS011;6693;54.370;10.132;2023-03-16T00:21:28;9.25;;;4.22;;
13252;SDS011;6693;54.370;10.132;2023-03-16T00:22:29;10.88;;;2.75;;
13252;SDS011;6693;54.370;10.132;2023-03-16T00:23:33;9.18;;;1.65;;
13252;SDS011;6693;54.370;10.132;2023-03-16T00:24:37;6.50;;;1.58;;
13252;SDS011;6693;54.370;10.132;2023-03-16T00:25:38;12.05;;;2.40;;
13252;SDS011;6693;54.370;10.132;2023-03-16T00:26:41;9.90;;;3.05;;
13252;SDS011;6693;54.370;10.132;2023-03-16T00:27:42;8.35;;;1.65;;
13252;SDS011;6693;54.370;10.132;2023-03-16T00:28:45;9.93;;;2.15;;
13252;SDS011;6693;54.370;10.132;2023-03-16T00:29:46;9.73;;;2.28;;
13252;SDS011;6693;54.370;10.132;2023-03-16T00:30:54;9.77;;;1.55;;
13252;SDS011;6693;54.370;10.132;2023-03-16T00:31:57;6.45;;;1.10;;
13252;SDS011;6693;54.370;10.132;2023-03-16T00:33:02;10.00;;;1.13;;
13252;SDS011;6693;54.370;10.132;2023-03-16T00:34:03;11.80;;;1.45;;
13252;SDS011;6693;54.370;10.132;2023-03-16T00:35:07;12.27;;;1.60;;
13252;SDS011;6693;54.370;10.132;2023-03-16T00:36:11;8.80;;;1.88;;
13252;SDS011;6693;54.370;10.132;2023-03-16T00:37:15;11.73;;;1.23;;
13252;SDS011;6693;54.370;10.132;2023-03-16T00:38:17;8.50;;;0.98;;
13252;SDS011;6693;54.370;10.132;2023-03-16T00:39:21;9.05;;;1.40;;
13252;SDS011;6693;54.370;10.132;2023-03-16T00:40:22;9.07;;;1.23;;
13252;SDS011;6693;54.370;10.132;2023-03-16T00:41:25;8.05;;;1.25;;
13252;SDS011;6693;54.370;10.132;2023-03-16T00:42:26;10.98;;;1.13;;
13252;SDS011;6693;54.370;10.132;2023-03-16T00:43:34;10.07;;;1.20;;
13252;SDS011;6693;54.370;10.132;2023-03-16T00:44:40;7.18;;;1.08;;
13252;SDS011;6693;54.370;10.132;2023-03-16T00:45:43;8.30;;;1.08;;
13252;SDS011;6693;54.370;10.132;2023-03-16T00:46:44;9.52;;;1.13;;
13252;SDS011;6693;54.370;10.132;2023-03-16T00:47:47;8.90;;;1.15;;
13252;SDS011;6693;54.370;10.132;2023-03-16T00:48:48;8.63;;;0.82;;
13252;SDS011;6693;54.370;10.132;2023-03-16T00:49:51;8.73;;;1.05;;
13252;SDS011;6693;54.370;10.132;2023-03-16T00:50:51;6.78;;;1.30;;
13252;SDS011;6693;54.370;10.132;2023-03-16T00:51:57;9.32;;;1.30;;
13252;SDS011;6693;54.370;10.132;2023-03-16T00:52:58;9.38;;;1.27;;
13252;SDS011;6693;54.370;10.132;2023-03-16T00:54:01;9.85;;;1.42;;
13252;SDS011;6693;54.370;10.132;2023-03-16T00:55:03;9.55;;;1.27;;
13252;SDS011;6693;54.370;10.132;2023-03-16T00:56:07;11.40;;;1.45;;
13252;SDS011;6693;54.370;10.132;2023-03-16T00:57:09;8.60;;;1.50;;
13252;SDS011;6693;54.370;10.132;2023-03-16T00:58:12;11.25;;;1.80;;
13252;SDS011;6693;54.370;10.132;2023-03-16T00:59:14;7.60;;;1.38;;
13252;SDS011;6693;54.370;10.132;2023-03-16T01:00:19;7.72;;;1.20;;
13252;SDS011;6693;54.370;10.132;2023-03-16T01:01:21;7.60;;;1.35;;
13252;SDS011;6693;54.370;10.132;2023-03-16T01:02:24;10.10;;;1.52;;
13252;SDS011;6693;54.370;10.132;2023-03-16T01:03:25;9.70;;;1.02;;
13252;SDS011;6693;54.370;10.132;2023-03-16T01:04:28;7.78;;;1.02;;
13252;SDS011;6693;54.370;10.132;2023-03-16T01:05:28;10.05;;;1.23;;
13252;SDS011;6693;54.370;10.132;2023-03-16T01:06:32;10.57;;;1.30;;
13252;SDS011;6693;54.370;10.132;2023-03-16T01:07:35;7.38;;;1.23;;
13252;SDS011;6693;54.370;10.132;2023-03-16T01:08:39;8.32;;;1.35;;
13252;SDS011;6693;54.370;10.132;2023-03-16T01:09:40;8.68;;;1.35;;
13252;SDS011;6693;54.370;10.132;2023-03-16T01:10:43;6.10;;;1.10;;
13252;SDS011;6693;54.370;10.132;2023-03-16T01:11:44;8.65;;;1.30;;
13252;SDS011;6693;54.370;10.132;2023-03-16T01:12:49;8.20;;;1.00;;
13252;SDS011;6693;54.370;10.132;2023-03-16T01:13:55;9.30;;;1.05;;
13252;SDS011;6693;54.370;10.132;2023-03-16T01:14:58;7.32;;;1.17;;
13252;SDS011;6693;54.370;10.132;2023-03-16T01:15:59;7.38;;;0.98;;
13252;SDS011;6693;54.370;10.132;2023-03-16T01:17:03;7.90;;;1.00;;
13252;SDS011;6693;54.370;10.132;2023-03-16T01:18:07;10.63;;;1.17;;
13252;SDS011;6693;54.370;10.132;2023-03-16T01:19:12;8.00;;;1.15;;
13252;SDS011;6693;54.370;10.132;2023-03-16T01:20:13;8.90;;;1.45;;
13252;SDS011;6693;54.370;10.132;2023-03-16T01:21:19;12.65;;;1.45;;
13252;SDS011;6693;54.370;10.132;2023-03-16T01:23:26;8.02;;;1.02;;
13252;SDS011;6693;54.370;10.132;2023-03-16T01:24:29;7.32;;;1.20;;
13252;SDS011;6693;54.370;10.132;2023-03-16T01:25:33;10.18;;;1.30;;
13252;SDS011;6693;54.370;10.132;2023-03-16T01:26:36;5.93;;;0.98;;
13252;SDS011;6693;54.370;10.132;2023-03-16T01:27:36;6.35;;;1.23;;
13252;SDS011;6693;54.370;10.132;2023-03-16T01:28:41;10.10;;;1.63;;
13252;SDS011;6693;54.370;10.132;2023-03-16T01:29:43;11.13;;;1.30;;
13252;SDS011;6693;54.370;10.132;2023-03-16T01:30:46;8.55;;;1.38;;
13252;SDS011;6693;54.370;10.132;2023-03-16T01:31:47;10.15;;;1.42;;
13252;SDS011;6693;54.370;10.132;2023-03-16T01:32:50;5.47;;;1.88;;
13252;SDS011;6693;54.370;10.132;2023-03-16T01:33:51;10.38;;;1.75;;
13252;SDS011;6693;54.370;10.132;2023-03-16T01:34:54;8.27;;;1.35;;
13252;SDS011;6693;54.370;10.132;2023-03-16T01:35:55;8.93;;;1.85;;
13252;SDS011;6693;54.370;10.132;2023-03-16T01:36:59;7.85;;;1.58;;
13252;SDS011;6693;54.370;10.132;2023-03-16T01:38:00;7.55;;;1.33;;
13252;SDS011;6693;54.370;10.132;2023-03-16T01:39:06;6.45;;;1.20;;
13252;SDS011;6693;54.370;10.132;2023-03-16T01:40:07;10.68;;;1.45;;
13252;SDS011;6693;54.370;10.132;2023-03-16T01:41:11;8.63;;;1.75;;
13252;SDS011;6693;54.370;10.132;2023-03-16T01:42:12;10.23;;;1.50;;
13252;SDS011;6693;54.370;10.132;2023-03-16T01:43:16;7.00;;;1.33;;
13252;SDS011;6693;54.370;10.132;2023-03-16T01:44:18;10.40;;;1.80;;
13252;SDS011;6693;54.370;10.132;2023-03-16T01:47:06;9.60;;;1.52;;
13252;SDS011;6693;54.370;10.132;2023-03-16T01:48:11;9.73;;;1.67;;
13252;SDS011;6693;54.370;10.132;2023-03-16T01:49:12;11.90;;;1.98;;
13252;SDS011;6693;54.370;10.132;2023-03-16T01:50:17;10.00;;;1.92;;
13252;SDS011;6693;54.370;10.132;2023-03-16T01:51:18;8.60;;;1.83;;
13252;SDS011;6693;54.370;10.132;2023-03-16T01:52:21;11.85;;;2.83;;
13252;SDS011;6693;54.370;10.132;2023-03-16T01:53:26;11.40;;;2.80;;
13252;SDS011;6693;54.370;10.132;2023-03-16T01:54:30;8.05;;;2.20;;
13252;SDS011;6693;54.370;10.132;2023-03-16T01:55:35;14.65;;;1.98;;
13252;SDS011;6693;54.370;10.132;2023-03-16T01:56:37;7.45;;;1.77;;
13252;SDS011;6693;54.370;10.132;2023-03-16T01:57:42;10.85;;;2.08;;
13252;SDS011;6693;54.370;10.132;2023-03-16T01:58:45;13.40;;;2.38;;
13252;SDS011;6693;54.370;10.132;2023-03-16T01:59:50;10.05;;;1.38;;
13252;SDS011;6693;54.370;10.132;2023-03-16T02:00:56;7.55;;;1.30;;
13252;SDS011;6693;54.370;10.132;2023-03-16T02:01:57;8.75;;;1.63;;
13252;SDS011;6693;54.370;10.132;2023-03-16T02:03:02;11.68;;;2.63;;
13252;SDS011;6693;54.370;10.132;2023-03-16T02:04:07;7.60;;;2.15;;
13252;SDS011;6693;54.370;10.132;2023-03-16T02:05:18;13.50;;;2.88;;
13252;SDS011;6693;54.370;10.132;2023-03-16T02:06:22;9.43;;;1.80;;
13252;SDS011;6693;54.370;10.132;2023-03-16T02:07:26;8.45;;;1.52;;
13252;SDS011;6693;54.370;10.132;2023-03-16T02:08:28;9.00;;;1.65;;
13252;SDS011;6693;54.370;10.132;2023-03-16T02:09:34;10.25;;;1.70;;
13252;SDS011;6693;54.370;10.132;2023-03-16T02:10:37;9.95;;;1.73;;
13252;SDS011;6693;54.370;10.132;2023-03-16T02:11:40;9.07;;;1.35;;
13252;SDS011;6693;54.370;10.132;2023-03-16T02:12:41;7.57;;;1.85;;
13252;SDS011;6693;54.370;10.132;2023-03-16T02:13:45;8.48;;;1.50;;
13252;SDS011;6693;54.370;10.132;2023-03-16T02:14:46;10.75;;;1.60;;
13252;SDS011;6693;54.370;10.132;2023-03-16T02:15:50;9.65;;;1.55;;
13252;SDS011;6693;54.370;10.132;2023-03-16T02:16:52;7.75;;;1.70;;
13252;SDS011;6693;54.370;10.132;2023-03-16T02:17:56;8.25;;;1.98;;
13252;SDS011;6693;54.370;10.132;2023-03-16T02:18:59;8.90;;;1.52;;
13252;SDS011;6693;54.370;10.132;2023-03-16T02:20:07;7.53;;;1.73;;
13252;SDS011;6693;54.370;10.132;2023-03-16T02:21:13;9.32;;;1.95;;
13252;SDS011;6693;54.370;10.132;2023-03-16T02:22:21;9.75;;;2.30;;
13252;SDS011;6693;54.370;10.132;2023-03-16T02:23:24;9.43;;;1.67;;
13252;SDS011;6693;54.370;10.132;2023-03-16T02:24:27;11.05;;;1.92;;
13252;SDS011;6693;54.370;10.132;2023-03-16T02:25:33;7.88;;;1.58;;
13252;SDS011;6693;54.370;10.132;2023-03-16T02:26:42;6.50;;;1.25;;
13252;SDS011;6693;54.370;10.132;2023-03-16T02:27:48;8.68;;;1.48;;
13252;SDS011;6693;54.370;10.132;2023-03-16T02:28:58;10.23;;;1.33;;
13252;SDS011;6693;54.370;10.132;2023-03-16T02:30:09;7.47;;;1.45;;
13252;SDS011;6693;54.370;10.132;2023-03-16T02:31:14;9.15;;;1.40;;
13252;SDS011;6693;54.370;10.132;2023-03-16T02:32:15;9.05;;;1.42;;
13252;SDS011;6693;54.370;10.132;2023-03-16T02:33:19;7.55;;;1.92;;
13252;SDS011;6693;54.370;10.132;2023-03-16T02:34:20;11.50;;;1.70;;
13252;SDS011;6693;54.370;10.132;2023-03-16T02:35:23;9.80;;;1.42;;
13252;SDS011;6693;54.370;10.132;2023-03-16T02:36:24;9.05;;;1.55;;
13252;SDS011;6693;54.370;10.132;2023-03-16T02:37:27;11.95;;;1.75;;
13252;SDS011;6693;54.370;10.132;2023-03-16T02:38:28;9.40;;;1.35;;
13252;SDS011;6693;54.370;10.132;2023-03-16T02:39:32;10.40;;;1.85;;
13252;SDS011;6693;54.370;10.132;2023-03-16T02:40:33;7.93;;;1.98;;
13252;SDS011;6693;54.370;10.132;2023-03-16T02:41:37;6.07;;;1.60;;
13252;SDS011;6693;54.370;10.132;2023-03-16T02:42:40;6.20;;;1.25;;
13252;SDS011;6693;54.370;10.132;2023-03-16T02:43:45;7.00;;;1.63;;
13252;SDS011;6693;54.370;10.132;2023-03-16T02:44:49;7.53;;;1.40;;
13252;SDS011;6693;54.370;10.132;2023-03-16T02:45:58;9.32;;;1.17;;
13252;SDS011;6693;54.370;10.132;2023-03-16T02:47:00;7.30;;;1.13;;
13252;SDS011;6693;54.370;10.132;2023-03-16T02:48:06;10.25;;;1.60;;
13252;SDS011;6693;54.370;10.132;2023-03-16T02:49:11;8.85;;;1.35;;
13252;SDS011;6693;54.370;10.132;2023-03-16T02:50:17;7.65;;;1.50;;
13252;SDS011;6693;54.370;10.132;2023-03-16T02:51:18;7.88;;;1.33;;
13252;SDS011;6693;54.370;10.132;2023-03-16T02:52:21;7.70;;;1.30;;
13252;SDS011;6693;54.370;10.132;2023-03-16T02:53:22;8.23;;;1.50;;
13252;SDS011;6693;54.370;10.132;2023-03-16T02:54:25;9.10;;;1.55;;
13252;SDS011;6693;54.370;10.132;2023-03-16T02:55:26;7.07;;;1.52;;
13252;SDS011;6693;54.370;10.132;2023-03-16T02:56:29;7.00;;;0.90;;
13252;SDS011;6693;54.370;10.132;2023-03-16T02:57:30;8.48;;;1.15;;
13252;SDS011;6693;54.370;10.132;2023-03-16T02:58:33;8.75;;;1.80;;
13252;SDS011;6693;54.370;10.132;2023-03-16T02:59:34;9.55;;;1.58;;
13252;SDS011;6693;54.370;10.132;2023-03-16T03:00:37;9.38;;;1.48;;
13252;SDS011;6693;54.370;10.132;2023-03-16T03:01:41;5.90;;;1.13;;
13252;SDS011;6693;54.370;10.132;2023-03-16T03:02:44;6.80;;;1.23;;
13252;SDS011;6693;54.370;10.132;2023-03-16T03:03:45;10.02;;;1.63;;
13252;SDS011;6693;54.370;10.132;2023-03-16T03:04:49;6.25;;;1.23;;
13252;SDS011;6693;54.370;10.132;2023-03-16T03:05:53;7.40;;;1.33;;
13252;SDS011;6693;54.370;10.132;2023-03-16T03:06:56;11.43;;;1.65;;
13252;SDS011;6693;54.370;10.132;2023-03-16T03:08:04;5.78;;;0.98;;
13252;SDS011;6693;54.370;10.132;2023-03-16T03:09:05;8.82;;;1.42;;
13252;SDS011;6693;54.370;10.132;2023-03-16T03:10:10;10.77;;;1.95;;
13252;SDS011;6693;54.370;10.132;2023-03-16T03:11:11;6.30;;;1.35;;
13252;SDS011;6693;54.370;10.132;2023-03-16T03:12:14;8.18;;;1.10;;
13252;SDS011;6693;54.370;10.132;2023-03-16T03:13:15;7.90;;;1.45;;
13252;SDS011;6693;54.370;10.132;2023-03-16T03:14:19;7.65;;;1.45;;
13252;SDS011;6693;54.370;10.132;2023-03-16T03:15:19;9.20;;;1.42;;
13252;SDS011;6693;54.370;10.132;2023-03-16T03:16:23;9.55;;;1.42;;
13252;SDS011;6693;54.370;10.132;2023-03-16T03:17:26;8.70;;;1.40;;
13252;SDS011;6693;54.370;10.132;2023-03-16T03:18:31;9.02;;;1.35;;
13252;SDS011;6693;54.370;10.132;2023-03-16T03:19:33;6.20;;;1.30;;
13252;SDS011;6693;54.370;10.132;2023-03-16T03:20:37;7.18;;;1.40;;
13252;SDS011;6693;54.370;10.132;2023-03-16T03:21:38;8.05;;;2.00;;
13252;SDS011;6693;54.370;10.132;2023-03-16T03:22:42;10.82;;;1.58;;
13252;SDS011;6693;54.370;10.132;2023-03-16T03:23:44;7.43;;;1.73;;
13252;SDS011;6693;54.370;10.132;2023-03-16T03:24:47;9.43;;;1.50;;
13252;SDS011;6693;54.370;10.132;2023-03-16T03:25:48;9.38;;;1.27;;
13252;SDS011;6693;54.370;10.132;2023-03-16T03:26:51;6.65;;;1.70;;
13252;SDS011;6693;54.370;10.132;2023-03-16T03:27:52;9.57;;;2.47;;
13252;SDS011;6693;54.370;10.132;2023-03-16T03:28:56;10.68;;;2.30;;
13252;SDS011;6693;54.370;10.132;2023-03-16T03:29:56;9.30;;;2.20;;
13252;SDS011;6693;54.370;10.132;2023-03-16T03:30:59;7.95;;;1.95;;
13252;SDS011;6693;54.370;10.132;2023-03-16T03:32:00;9.05;;;1.85;;
13252;SDS011;6693;54.370;10.132;2023-03-16T03:33:07;9.80;;;2.08;;
13252;SDS011;6693;54.370;10.132;2023-03-16T03:34:08;8.07;;;2.22;;
13252;SDS011;6693;54.370;10.132;2023-03-16T03:35:12;7.00;;;1.92;;
13252;SDS011;6693;54.370;10.132;2023-03-16T03:36:13;11.00;;;2.25;;
13252;SDS011;6693;54.370;10.132;2023-03-16T03:37:16;11.52;;;2.22;;
13252;SDS011;6693;54.370;10.132;2023-03-16T03:38:17;8.05;;;1.83;;
13252;SDS011;6693;54.370;10.132;2023-03-16T03:39:20;9.10;;;2.13;;
13252;SDS011;6693;54.370;10.132;2023-03-16T03:40:21;8.20;;;2.47;;
13252;SDS011;6693;54.370;10.132;2023-03-16T03:41:24;7.70;;;2.38;;
13252;SDS011;6693;54.370;10.132;2023-03-16T03:42:25;11.57;;;2.78;;
13252;SDS011;6693;54.370;10.132;2023-03-16T03:43:28;10.02;;;2.38;;
13252;SDS011;6693;54.370;10.132;2023-03-16T03:44:30;10.35;;;2.33;;
13252;SDS011;6693;54.370;10.132;2023-03-16T03:45:33;11.90;;;2.42;;
13252;SDS011;6693;54.370;10.132;2023-03-16T03:46:34;10.02;;;2.22;;
13252;SDS011;6693;54.370;10.132;2023-03-16T03:47:37;13.13;;;2.22;;
13252;SDS011;6693;54.370;10.132;2023-03-16T03:48:40;12.50;;;2.42;;
13252;SDS011;6693;54.370;10.132;2023-03-16T03:49:44;8.13;;;2.20;;
13252;SDS011;6693;54.370;10.132;2023-03-16T03:50:44;7.93;;;2.45;;
13252;SDS011;6693;54.370;10.132;2023-03-16T03:51:48;9.52;;;2.38;;
13252;SDS011;6693;54.370;10.132;2023-03-16T03:52:48;13.98;;;2.45;;
13252;SDS011;6693;54.370;10.132;2023-03-16T03:53:51;12.95;;;2.60;;
13252;SDS011;6693;54.370;10.132;2023-03-16T03:54:53;8.55;;;1.88;;
13252;SDS011;6693;54.370;10.132;2023-03-16T03:55:56;7.80;;;2.20;;
13252;SDS011;6693;54.370;10.132;2023-03-16T03:56:56;10.60;;;2.83;;
13252;SDS011;6693;54.370;10.132;2023-03-16T03:57:59;11.80;;;2.35;;
13252;SDS011;6693;54.370;10.132;2023-03-16T03:59:00;8.38;;;2.33;;
13252;SDS011;6693;54.370;10.132;2023-03-16T04:00:04;9.60;;;2.35;;
13252;SDS011;6693;54.370;10.132;2023-03-16T04:01:08;12.85;;;2.58;;
13252;SDS011;6693;54.370;10.132;2023-03-16T04:02:12;7.72;;;2.45;;
13252;SDS011;6693;54.370;10.132;2023-03-16T04:03:12;8.98;;;2.75;;
13252;SDS011;6693;54.370;10.132;2023-03-16T04:04:19;14.13;;;4.30;;
13252;SDS011;6693;54.370;10.132;2023-03-16T04:05:19;11.60;;;3.10;;
13252;SDS011;6693;54.370;10.132;2023-03-16T04:06:26;10.73;;;2.45;;
13252;SDS011;6693;54.370;10.132;2023-03-16T04:07:27;10.82;;;3.63;;
13252;SDS011;6693;54.370;10.132;2023-03-16T04:08:30;9.82;;;3.05;;
13252;SDS011;6693;54.370;10.132;2023-03-16T04:09:30;9.95;;;2.90;;
13252;SDS011;6693;54.370;10.132;2023-03-16T04:10:34;11.02;;;3.38;;
13252;SDS011;6693;54.370;10.132;2023-03-16T04:11:35;9.23;;;2.10;;
13252;SDS011;6693;54.370;10.132;2023-03-16T04:12:38;9.95;;;2.55;;
13252;SDS011;6693;54.370;10.132;2023-03-16T04:13:39;9.77;;;2.92;;
13252;SDS011;6693;54.370;10.132;2023-03-16T04:14:42;9.50;;;2.75;;
13252;SDS011;6693;54.370;10.132;2023-03-16T04:15:43;13.88;;;4.97;;
13252;SDS011;6693;54.370;10.132;2023-03-16T04:16:46;10.02;;;3.08;;
13252;SDS011;6693;54.370;10.132;2023-03-16T04:17:47;9.30;;;2.80;;
13252;SDS011;6693;54.370;10.132;2023-03-16T04:18:51;10.40;;;3.05;;
13252;SDS011;6693;54.370;10.132;2023-03-16T04:19:56;10.23;;;2.55;;
13252;SDS011;6693;54.370;10.132;2023-03-16T04:20:59;12.43;;;3.25;;
13252;SDS011;6693;54.370;10.132;2023-03-16T04:21:59;10.02;;;3.13;;
13252;SDS011;6693;54.370;10.132;2023-03-16T04:23:03;8.52;;;2.97;;
13252;SDS011;6693;54.370;10.132;2023-03-16T04:24:04;8.32;;;2.05;;
13252;SDS011;6693;54.370;10.132;2023-03-16T04:25:08;10.30;;;2.80;;
13252;SDS011;6693;54.370;10.132;2023-03-16T04:26:09;9.63;;;2.47;;
13252;SDS011;6693;54.370;10.132;2023-03-16T04:27:12;11.60;;;3.10;;
13252;SDS011;6693;54.370;10.132;2023-03-16T04:28:13;8.38;;;2.30;;
13252;SDS011;6693;54.370;10.132;2023-03-16T04:29:17;11.38;;;2.83;;
13252;SDS011;6693;54.370;10.132;2023-03-16T04:30:18;11.27;;;2.70;;
13252;SDS011;6693;54.370;10.132;2023-03-16T04:31:22;10.20;;;2.10;;
13252;SDS011;6693;54.370;10.132;2023-03-16T04:32:23;11.05;;;3.08;;
13252;SDS011;6693;54.370;10.132;2023-03-16T04:33:26;10.75;;;2.17;;
13252;SDS011;6693;54.370;10.132;2023-03-16T04:34:27;9.05;;;2.65;;
13252;SDS011;6693;54.370;10.132;2023-03-16T04:35:33;10.50;;;2.22;;
13252;SDS011;6693;54.370;10.132;2023-03-16T04:36:34;10.77;;;2.38;;
13252;SDS011;6693;54.370;10.132;2023-03-16T04:37:37;7.65;;;2.05;;
13252;SDS011;6693;54.370;10.132;2023-03-16T04:38:38;8.15;;;1.60;;
13252;SDS011;6693;54.370;10.132;2023-03-16T04:39:41;11.05;;;2.22;;
13252;SDS011;6693;54.370;10.132;2023-03-16T04:40:41;8.15;;;2.05;;
13252;SDS011;6693;54.370;10.132;2023-03-16T04:41:45;7.93;;;2.20;;
13252;SDS011;6693;54.370;10.132;2023-03-16T04:42:46;9.52;;;2.00;;
13252;SDS011;6693;54.370;10.132;2023-03-16T04:43:49;9.18;;;2.13;;
13252;SDS011;6693;54.370;10.132;2023-03-16T04:44:50;8.23;;;1.80;;
13252;SDS011;6693;54.370;10.132;2023-03-16T04:45:53;6.25;;;1.83;;
13252;SDS011;6693;54.370;10.132;2023-03-16T04:46:54;7.10;;;1.13;;
13252;SDS011;6693;54.370;10.132;2023-03-16T04:47:58;5.63;;;1.42;;
13252;SDS011;6693;54.370;10.132;2023-03-16T04:48:58;6.03;;;1.42;;
13252;SDS011;6693;54.370;10.132;2023-03-16T04:50:02;6.47;;;1.20;;
13252;SDS011;6693;54.370;10.132;2023-03-16T04:51:06;6.00;;;1.52;;
13252;SDS011;6693;54.370;10.132;2023-03-16T04:52:09;6.60;;;1.52;;
13252;SDS011;6693;54.370;10.132;2023-03-16T04:53:10;9.10;;;1.88;;
13252;SDS011;6693;54.370;10.132;2023-03-16T04:54:13;5.00;;;1.35;;
13252;SDS011;6693;54.370;10.132;2023-03-16T04:55:14;5.75;;;1.30;;
13252;SDS011;6693;54.370;10.132;2023-03-16T04:56:17;5.55;;;1.40;;
13252;SDS011;6693;54.370;10.132;2023-03-16T04:57:18;7.70;;;1.98;;
13252;SDS011;6693;54.370;10.132;2023-03-16T04:58:21;9.95;;;1.60;;
13252;SDS011;6693;54.370;10.132;2023-03-16T04:59:22;5.40;;;2.13;;
13252;SDS011;6693;54.370;10.132;2023-03-16T05:00:25;8.40;;;1.83;;
13252;SDS011;6693;54.370;10.132;2023-03-16T05:01:26;5.25;;;1.10;;
13252;SDS011;6693;54.370;10.132;2023-03-16T05:02:29;4.18;;;1.05;;
13252;SDS011;6693;54.370;10.132;2023-03-16T05:03:31;3.92;;;1.15;;
13252;SDS011;6693;54.370;10.132;2023-03-16T05:04:34;5.38;;;1.52;;
13252;SDS011;6693;54.370;10.132;2023-03-16T05:05:35;7.13;;;1.65;;
13252;SDS011;6693;54.370;10.132;2023-03-16T05:06:40;8.50;;;1.58;;
13252;SDS011;6693;54.370;10.132;2023-03-16T05:07:41;7.57;;;2.22;;
13252;SDS011;6693;54.370;10.132;2023-03-16T05:08:44;6.22;;;0.95;;
13252;SDS011;6693;54.370;10.132;2023-03-16T05:09:45;6.47;;;1.70;;
13252;SDS011;6693;54.370;10.132;2023-03-16T05:10:48;5.63;;;1.00;;
13252;SDS011;6693;54.370;10.132;2023-03-16T05:11:49;7.43;;;1.73;;
13252;SDS011;6693;54.370;10.132;2023-03-16T05:12:52;5.90;;;0.98;;
13252;SDS011;6693;54.370;10.132;2023-03-16T05:13:52;11.77;;;2.60;;
13252;SDS011;6693;54.370;10.132;2023-03-16T05:14:56;7.18;;;2.60;;
13252;SDS011;6693;54.370;10.132;2023-03-16T05:15:56;7.55;;;1.83;;
13252;SDS011;6693;54.370;10.132;2023-03-16T05:16:59;9.20;;;1.77;;
13252;SDS011;6693;54.370;10.132;2023-03-16T05:18:02;7.10;;;1.55;;
13252;SDS011;6693;54.370;10.132;2023-03-16T05:19:06;9.20;;;2.05;;
13252;SDS011;6693;54.370;10.132;2023-03-16T05:20:07;5.53;;;1.70;;
13252;SDS011;6693;54.370;10.132;2023-03-16T05:21:12;7.30;;;2.72;;
13252;SDS011;6693;54.370;10.132;2023-03-16T05:22:15;8.75;;;2.72;;
13252;SDS011;6693;54.370;10.132;2023-03-16T05:23:18;6.88;;;2.28;;
13252;SDS011;6693;54.370;10.132;2023-03-16T05:24:19;8.98;;;2.45;;
13252;SDS011;6693;54.370;10.132;2023-03-16T05:25:23;4.72;;;1.58;;
13252;SDS011;6693;54.370;10.132;2023-03-16T05:26:23;12.85;;;2.15;;
13252;SDS011;6693;54.370;10.132;2023-03-16T05:27:27;5.45;;;1.15;;
13252;SDS011;6693;54.370;10.132;2023-03-16T05:28:27;9.30;;;1.90;;
13252;SDS011;6693;54.370;10.132;2023-03-16T05:29:31;10.98;;;2.25;;
13252;SDS011;6693;54.370;10.132;2023-03-16T05:30:31;14.48;;;2.70;;
13252;SDS011;6693;54.370;10.132;2023-03-16T05:31:35;6.82;;;2.17;;
13252;SDS011;6693;54.370;10.132;2023-03-16T05:32:37;7.78;;;2.33;;
13252;SDS011;6693;54.370;10.132;2023-03-16T05:33:41;7.75;;;2.58;;
13252;SDS011;6693;54.370;10.132;2023-03-16T05:34:41;9.57;;;2.63;;
13252;SDS011;6693;54.370;10.132;2023-03-16T05:35:45;7.88;;;1.63;;
13252;SDS011;6693;54.370;10.132;2023-03-16T05:36:45;11.75;;;2.25;;
13252;SDS011;6693;54.370;10.132;2023-03-16T05:37:51;11.32;;;2.20;;
13252;SDS011;6693;54.370;10.132;2023-03-16T05:38:52;10.18;;;2.25;;
13252;SDS011;6693;54.370;10.132;2023-03-16T05:39:55;9.85;;;3.20;;
13252;SDS011;6693;54.370;10.132;2023-03-16T05:40:56;6.07;;;1.73;;
13252;SDS011;6693;54.370;10.132;2023-03-16T05:42:01;9.73;;;2.42;;
13252;SDS011;6693;54.370;10.132;2023-03-16T05:43:01;6.32;;;1.45;;
13252;SDS011;6693;54.370;10.132;2023-03-16T05:44:05;6.15;;;1.98;;
13252;SDS011;6693;54.370;10.132;2023-03-16T05:45:06;7.90;;;2.17;;
13252;SDS011;6693;54.370;10.132;2023-03-16T05:46:10;10.15;;;2.42;;
13252;SDS011;6693;54.370;10.132;2023-03-16T05:47:11;11.70;;;2.70;;
13252;SDS011;6693;54.370;10.132;2023-03-16T05:48:15;8.10;;;1.85;;
13252;SDS011;6693;54.370;10.132;2023-03-16T05:49:15;10.68;;;2.50;;
13252;SDS011;6693;54.370;10.132;2023-03-16T05:50:19;9.75;;;3.10;;
13252;SDS011;6693;54.370;10.132;2023-03-16T05:51:19;9.40;;;1.80;;
13252;SDS011;6693;54.370;10.132;2023-03-16T05:52:25;7.90;;;1.27;;
13252;SDS011;6693;54.370;10.132;2023-03-16T05:53:28;6.35;;;1.70;;
13252;SDS011;6693;54.370;10.132;2023-03-16T05:54:32;8.25;;;1.98;;
13252;SDS011;6693;54.370;10.132;2023-03-16T05:55:33;10.00;;;2.58;;
13252;SDS011;6693;54.370;10.132;2023-03-16T05:56:36;9.05;;;2.75;;
13252;SDS011;6693;54.370;10.132;2023-03-16T05:57:37;12.48;;;2.28;;
13252;SDS011;6693;54.370;10.132;2023-03-16T05:58:40;9.93;;;2.33;;
13252;SDS011;6693;54.370;10.132;2023-03-16T05:59:41;9.27;;;2.50;;
13252;SDS011;6693;54.370;10.132;2023-03-16T06:00:44;8.40;;;2.33;;
13252;SDS011;6693;54.370;10.132;2023-03-16T06:01:45;10.63;;;1.88;;
13252;SDS011;6693;54.370;10.132;2023-03-16T06:02:49;8.50;;;1.88;;
13252;SDS011;6693;54.370;10.132;2023-03-16T06:03:50;7.72;;;2.05;;
13252;SDS011;6693;54.370;10.132;2023-03-16T06:04:54;8.30;;;2.35;;
13252;SDS011;6693;54.370;10.132;2023-03-16T06:05:54;12.88;;;2.97;;
13252;SDS011;6693;54.370;10.132;2023-03-16T06:06:57;8.35;;;2.50;;
13252;SDS011;6693;54.370;10.132;2023-03-16T06:07:58;8.38;;;2.67;;
13252;SDS011;6693;54.370;10.132;2023-03-16T06:09:04;7.20;;;2.47;;
13252;SDS011;6693;54.370;10.132;2023-03-16T06:10:05;8.88;;;2.47;;
13252;SDS011;6693;54.370;10.132;2023-03-16T06:11:09;9.20;;;2.58;;
13252;SDS011;6693;54.370;10.132;2023-03-16T06:12:10;13.07;;;3.00;;
13252;SDS011;6693;54.370;10.132;2023-03-16T06:13:13;8.68;;;2.70;;
13252;SDS011;6693;54.370;10.132;2023-03-16T06:14:14;11.40;;;2.95;;
13252;SDS011;6693;54.370;10.132;2023-03-16T06:15:17;11.63;;;3.05;;
13252;SDS011;6693;54.370;10.132;2023-03-16T06:16:18;10.05;;;2.28;;
13252;SDS011;6693;54.370;10.132;2023-03-16T06:17:21;10.88;;;3.17;;
13252;SDS011;6693;54.370;10.132;2023-03-16T06:18:22;9.57;;;3.22;;
13252;SDS011;6693;54.370;10.132;2023-03-16T06:19:25;12.82;;;3.80;;